createdAt,value
2023-03-01T00:04:50.963Z,5.54
2023-03-01T00:09:53.068Z,5.49
2023-03-01T00:14:55.217Z,5.53
2023-03-01T00:19:57.691Z,5.28
2023-03-01T00:24:59.805Z,5.32
2023-03-01T00:30:02.105Z,5.50
2023-03-01T00:35:04.871Z,5.29
2023-03-01T00:40:07.797Z,5.48
2023-03-01T00:45:10.349Z,5.39
2023-03-01T00:50:12.918Z,5.57
2023-03-01T00:55:15.012Z,5.59
2023-03-01T01:00:17.938Z,5.58
2023-03-01T01:05:21.925Z,5.52
2023-03-01T01:10:24.021Z,5.61
2023-03-01T01:15:26.283Z,5.67
2023-03-01T01:20:28.468Z,5.52
2023-03-01T01:25:30.577Z,5.63
2023-03-01T01:30:32.668Z,5.60
2023-03-01T01:35:34.805Z,5.51
2023-03-01T01:40:44.380Z,5.37
2023-03-01T01:45:46.669Z,5.34
2023-03-01T01:50:56.722Z,5.36
2023-03-01T01:56:02.565Z,5.22
2023-03-01T02:01:06.144Z,5.44
2023-03-01T02:06:32.162Z,5.47
2023-03-01T02:11:35.213Z,5.36
2023-03-01T02:16:37.456Z,5.25
2023-03-01T02:21:46.820Z,5.33
2023-03-01T02:26:55.822Z,5.40
2023-03-01T02:32:01.301Z,5.39
2023-03-01T02:37:10.172Z,5.29
2023-03-01T02:42:15.526Z,5.20
2023-03-01T02:47:17.648Z,5.34
2023-03-01T02:52:41.886Z,5.19
2023-03-01T02:57:47.196Z,5.29
2023-03-01T03:02:54.309Z,5.32
2023-03-01T03:07:57.962Z,5.16
2023-03-01T03:13:03.629Z,5.17
2023-03-01T03:18:10.345Z,5.13
2023-03-01T03:23:12.863Z,5.10
2023-03-01T03:28:16.907Z,5.20
2023-03-01T03:33:19.015Z,5.24
2023-03-01T03:38:23.293Z,5.35
2023-03-01T03:43:25.366Z,5.27
2023-03-01T03:48:29.931Z,5.41
2023-03-01T03:53:32.490Z,5.33
2023-03-01T03:58:35.014Z,5.25
2023-03-01T04:03:37.170Z,5.18
2023-03-01T04:08:39.309Z,5.09
2023-03-01T04:13:41.386Z,5.14
2023-03-01T04:18:43.462Z,5.21
2023-03-01T04:23:45.629Z,5.00
2023-03-01T04:28:49.151Z,5.22
2023-03-01T04:33:53.967Z,5.21
2023-03-01T04:38:56.942Z,5.06
2023-03-01T04:44:01.088Z,5.08
2023-03-01T04:49:04.521Z,5.11
2023-03-01T04:54:09.730Z,5.06
2023-03-01T04:59:13.665Z,5.13
2023-03-01T05:04:16.180Z,5.14
2023-03-01T05:09:18.327Z,4.98
2023-03-01T05:14:20.448Z,5.06
2023-03-01T05:19:23.848Z,4.98
2023-03-01T05:24:26.174Z,5.15
2023-03-01T05:29:30.231Z,5.19
2023-03-01T05:34:36.341Z,5.17
2023-03-01T05:39:38.542Z,5.18
2023-03-01T05:44:40.661Z,5.10
2023-03-01T05:49:42.746Z,5.24
2023-03-01T05:54:44.837Z,5.34
2023-03-01T05:59:46.968Z,5.32
2023-03-01T06:04:49.170Z,5.39
2023-03-01T06:09:51.542Z,5.53
2023-03-01T06:14:53.662Z,5.56
2023-03-01T06:19:55.805Z,5.56
2023-03-01T06:24:57.944Z,5.48
2023-03-01T06:30:00.512Z,5.65
2023-03-01T06:35:02.670Z,5.62
2023-03-01T06:40:09.310Z,5.71
2023-03-01T06:45:12.551Z,5.86
2023-03-01T06:50:15.757Z,6.03
2023-03-01T06:55:17.876Z,5.98
2023-03-01T07:00:20.414Z,6.00
2023-03-01T07:05:22.515Z,6.04
2023-03-01T07:10:25.018Z,6.15
2023-03-01T07:15:28.266Z,6.47
2023-03-01T07:20:30.356Z,6.55
2023-03-01T07:25:33.182Z,6.87
2023-03-01T07:30:35.366Z,7.05
2023-03-01T07:35:37.560Z,7.17
2023-03-01T07:40:39.650Z,7.50
2023-03-01T07:45:41.758Z,7.55
2023-03-01T07:50:43.932Z,7.68
2023-03-01T07:55:46.031Z,7.54
2023-03-01T08:00:50.938Z,8.15
2023-03-01T08:05:53.125Z,8.58
2023-03-01T08:10:59.559Z,8.58
2023-03-01T08:16:03.423Z,8.51
2023-03-01T08:21:14.714Z,8.74
2023-03-01T08:26:19.659Z,8.44
2023-03-01T08:31:24.544Z,8.75
2023-03-01T08:36:29.419Z,8.91
2023-03-01T08:41:32.200Z,9.23
2023-03-01T08:46:37.789Z,9.70
2023-03-01T08:51:40.333Z,10.24
2023-03-01T08:56:42.932Z,10.82
2023-03-01T09:01:45.111Z,11.49
2023-03-01T09:06:47.248Z,12.93
2023-03-01T09:11:51.118Z,12.42
2023-03-01T09:16:53.324Z,12.47
2023-03-01T09:21:57.155Z,14.26
2023-03-01T09:27:01.605Z,14.66
2023-03-01T09:32:04.099Z,14.52
2023-03-01T09:37:06.492Z,16.08
2023-03-01T09:42:13.660Z,17.00
2023-03-01T09:47:37.100Z,16.54
2023-03-01T09:52:43.848Z,18.19
2023-03-01T09:57:54.285Z,17.68
2023-03-01T10:03:29.116Z,18.41
2023-03-01T10:08:47.819Z,18.03
2023-03-01T10:13:54.707Z,19.92
2023-03-01T10:19:01.714Z,22.35
2023-03-01T10:24:17.315Z,24.03
2023-03-01T10:29:25.134Z,25.26
2023-03-01T10:34:36.485Z,26.29
2023-03-01T10:39:56.321Z,28.60
2023-03-01T10:44:59.177Z,27.05
2023-03-01T10:50:04.994Z,28.32
2023-03-01T10:55:28.493Z,29.49
2023-03-01T11:00:30.840Z,30.13
2023-03-01T11:05:34.666Z,30.08
2023-03-01T11:10:40.498Z,32.00
2023-03-01T11:15:43.256Z,25.20
2023-03-01T11:20:45.603Z,22.09
2023-03-01T11:25:55.649Z,24.51
2023-03-01T11:31:16.429Z,27.29
2023-03-01T11:36:47.792Z,29.11
2023-03-01T11:42:09.275Z,27.43
2023-03-01T11:47:27.432Z,24.53
2023-03-01T11:52:41.616Z,25.15
2023-03-01T11:57:59.008Z,21.41
2023-03-01T12:03:11.709Z,22.23
2023-03-01T12:08:24.201Z,22.39
2023-03-01T12:13:50.574Z,19.52
2023-03-01T12:18:55.746Z,19.57
2023-03-01T12:24:17.093Z,19.00
2023-03-01T12:29:50.393Z,18.73
2023-03-01T12:35:15.932Z,18.35
2023-03-01T12:40:37.282Z,18.17
2023-03-01T12:46:15.871Z,19.75
2023-03-01T12:51:31.566Z,21.78
2023-03-01T12:56:38.953Z,22.00
2023-03-01T13:02:02.887Z,20.94
2023-03-01T13:07:23.183Z,19.23
2023-03-01T13:12:46.531Z,24.42
2023-03-01T13:17:50.634Z,27.08
2023-03-01T13:23:11.854Z,27.72
2023-03-01T13:28:36.748Z,27.19
2023-03-01T13:33:49.330Z,26.72
2023-03-01T13:39:39.841Z,28.48
2023-03-01T13:44:44.601Z,29.17
2023-03-01T13:49:51.777Z,30.76
2023-03-01T13:54:54.813Z,29.32
2023-03-01T13:59:56.967Z,31.24
2023-03-01T14:05:00.839Z,30.22
2023-03-01T14:10:06.430Z,30.64
2023-03-01T14:15:28.423Z,29.40
2023-03-01T14:20:39.703Z,30.32
2023-03-01T14:25:55.848Z,29.69
2023-03-01T14:31:00.223Z,29.47
2023-03-01T14:36:12.166Z,29.56
2023-03-01T14:41:18.159Z,28.47
2023-03-01T14:46:37.840Z,27.42
2023-03-01T14:51:42.647Z,25.06
2023-03-01T14:56:47.801Z,25.19
2023-03-01T15:01:52.802Z,25.34
2023-03-01T15:06:56.818Z,25.75
2023-03-01T15:11:58.995Z,24.69
2023-03-01T15:17:01.387Z,22.82
2023-03-01T15:22:13.243Z,21.93
2023-03-01T15:27:19.672Z,21.79
2023-03-01T15:32:32.641Z,21.31
2023-03-01T15:37:49.495Z,19.72
2023-03-01T15:42:52.743Z,17.50
2023-03-01T15:48:04.419Z,17.10
2023-03-01T15:53:13.604Z,15.10
2023-03-01T15:58:21.782Z,13.97
2023-03-01T16:03:24.330Z,13.38
2023-03-01T16:08:26.485Z,12.64
2023-03-01T16:13:29.487Z,11.76
2023-03-01T16:18:31.629Z,11.06
2023-03-01T16:23:33.913Z,10.53
2023-03-01T16:28:36.033Z,10.10
2023-03-01T16:33:38.977Z,9.70
2023-03-01T16:38:41.178Z,9.92
2023-03-01T16:43:43.708Z,9.84
2023-03-01T16:48:47.338Z,9.38
2023-03-01T16:53:50.771Z,9.08
2023-03-01T16:58:52.996Z,8.79
2023-03-01T17:03:55.321Z,8.48
2023-03-01T17:08:58.123Z,8.06
2023-03-01T17:14:00.249Z,8.02
2023-03-01T17:19:03.203Z,7.79
2023-03-01T17:24:05.499Z,7.52
2023-03-01T17:29:07.850Z,7.30
2023-03-01T17:34:10.066Z,7.20
2023-03-01T17:39:12.291Z,6.61
2023-03-01T17:44:14.643Z,7.08
2023-03-01T17:49:18.310Z,6.72
2023-03-01T17:54:20.397Z,6.62
2023-03-01T17:59:22.812Z,6.46
2023-03-01T18:04:25.164Z,6.41
2023-03-01T18:09:28.314Z,6.24
2023-03-01T18:14:33.898Z,6.07
2023-03-01T18:19:36.227Z,6.11
2023-03-01T18:24:39.298Z,6.15
2023-03-01T18:29:41.417Z,6.00
2023-03-01T18:34:43.582Z,6.00
2023-03-01T18:39:45.854Z,5.99
2023-03-01T18:44:48.587Z,5.80
2023-03-01T18:49:50.698Z,5.76
2023-03-01T18:54:52.816Z,5.76
2023-03-01T18:59:57.533Z,5.51
2023-03-01T19:04:59.697Z,5.44
2023-03-01T19:10:01.892Z,5.33
2023-03-01T19:15:05.374Z,5.31
2023-03-01T19:20:08.616Z,5.31
2023-03-01T19:25:10.918Z,5.20
2023-03-01T19:30:13.295Z,5.39
2023-03-01T19:35:15.439Z,4.88
2023-03-01T19:40:17.921Z,4.94
2023-03-01T19:45:25.307Z,5.04
2023-03-01T19:50:34.076Z,5.00
2023-03-01T19:55:37.510Z,4.80
2023-03-01T20:00:44.397Z,4.95
2023-03-01T20:05:46.790Z,5.10
2023-03-01T20:10:48.969Z,5.33
2023-03-01T20:15:51.797Z,5.35
2023-03-01T20:20:54.460Z,5.22
2023-03-01T20:26:08.818Z,4.85
2023-03-01T20:31:12.649Z,4.65
2023-03-01T20:36:15.341Z,4.45
2023-03-01T20:41:17.593Z,4.35
2023-03-01T20:46:20.185Z,4.26
2023-03-01T20:51:22.325Z,4.18
2023-03-01T20:56:26.784Z,4.32
2023-03-01T21:01:29.423Z,4.09
2023-03-01T21:06:32.391Z,3.95
2023-03-01T21:11:34.724Z,4.08
2023-03-01T21:16:37.152Z,4.16
2023-03-01T21:21:39.667Z,4.20
2023-03-01T21:26:41.799Z,3.88
2023-03-01T21:31:43.996Z,3.89
2023-03-01T21:36:46.211Z,3.85
2023-03-01T21:41:50.484Z,3.70
2023-03-01T21:46:53.546Z,3.52
2023-03-01T21:51:55.804Z,3.43
2023-03-01T21:56:57.876Z,3.34
2023-03-01T22:01:59.982Z,3.21
2023-03-01T22:07:03.830Z,3.26
2023-03-01T22:12:06.584Z,2.99
2023-03-01T22:17:11.519Z,3.01
2023-03-01T22:22:19.011Z,2.95
2023-03-01T22:27:21.162Z,2.97
2023-03-01T22:32:26.721Z,3.02
2023-03-01T22:37:28.903Z,2.74
2023-03-01T22:42:31.174Z,2.42
2023-03-01T22:47:37.608Z,2.38
2023-03-01T22:52:39.799Z,2.47
2023-03-01T22:57:41.891Z,2.49
2023-03-01T23:02:47.286Z,2.37
2023-03-01T23:07:49.519Z,2.37
2023-03-01T23:12:55.203Z,2.35
2023-03-01T23:17:57.797Z,2.31
2023-03-01T23:23:01.714Z,2.16
2023-03-01T23:28:04.448Z,2.35
2023-03-01T23:33:06.546Z,2.14
2023-03-01T23:38:08.717Z,2.03
2023-03-01T23:43:10.899Z,2.09
2023-03-01T23:48:13.698Z,2.23
2023-03-01T23:53:18.023Z,2.10
2023-03-01T23:58:20.136Z,2.18
